sensor_id;sensor_type;location;lat;lon;timestamp;P1;durP1;ratioP1;P2;durP2;ratioP2
28459;SDS011;32528;45.712;9.192;2022-07-29T00:00:33;4.00;;;1.02;;
28459;SDS011;32528;45.712;9.192;2022-07-29T00:02:33;3.75;;;0.90;;
28459;SDS011;32528;45.712;9.192;2022-07-29T00:04:35;5.72;;;0.93;;
28459;SDS011;32528;45.712;9.192;2022-07-29T00:06:36;6.22;;;1.13;;
28459;SDS011;32528;45.712;9.192;2022-07-29T00:08:37;2.17;;;0.90;;
28459;SDS011;32528;45.712;9.192;2022-07-29T00:10:37;2.17;;;0.88;;
28459;SDS011;32528;45.712;9.192;2022-07-29T00:12:38;4.05;;;0.98;;
28459;SDS011;32528;45.712;9.192;2022-07-29T00:14:39;1.30;;;0.98;;
28459;SDS011;32528;45.712;9.192;2022-07-29T00:16:40;2.97;;;1.20;;
28459;SDS011;32528;45.712;9.192;2022-07-29T00:18:40;2.72;;;0.93;;
28459;SDS011;32528;45.712;9.192;2022-07-29T00:20:41;1.35;;;0.73;;
28459;SDS011;32528;45.712;9.192;2022-07-29T00:22:42;1.10;;;0.80;;
28459;SDS011;32528;45.712;9.192;2022-07-29T00:24:43;1.00;;;0.63;;
28459;SDS011;32528;45.712;9.192;2022-07-29T00:26:43;3.45;;;0.80;;
28459;SDS011;32528;45.712;9.192;2022-07-29T00:28:44;1.30;;;0.70;;
28459;SDS011;32528;45.712;9.192;2022-07-29T00:30:45;3.28;;;1.08;;
28459;SDS011;32528;45.712;9.192;2022-07-29T00:32:46;2.25;;;0.68;;
28459;SDS011;32528;45.712;9.192;2022-07-29T00:34:47;3.35;;;1.15;;
28459;SDS011;32528;45.712;9.192;2022-07-29T00:37:06;3.28;;;1.20;;
28459;SDS011;32528;45.712;9.192;2022-07-29T00:39:07;4.45;;;1.65;;
28459;SDS011;32528;45.712;9.192;2022-07-29T00:41:07;1.80;;;1.05;;
28459;SDS011;32528;45.712;9.192;2022-07-29T00:43:08;1.40;;;0.75;;
28459;SDS011;32528;45.712;9.192;2022-07-29T00:45:11;2.42;;;0.82;;
28459;SDS011;32528;45.712;9.192;2022-07-29T00:47:13;2.80;;;1.15;;
28459;SDS011;32528;45.712;9.192;2022-07-29T00:49:13;1.50;;;0.95;;
28459;SDS011;32528;45.712;9.192;2022-07-29T00:51:14;5.60;;;1.02;;
28459;SDS011;32528;45.712;9.192;2022-07-29T00:53:15;2.67;;;0.90;;
28459;SDS011;32528;45.712;9.192;2022-07-29T00:55:16;2.75;;;1.00;;
28459;SDS011;32528;45.712;9.192;2022-07-29T00:57:17;2.08;;;0.82;;
28459;SDS011;32528;45.712;9.192;2022-07-29T00:59:18;1.92;;;1.05;;
28459;SDS011;32528;45.712;9.192;2022-07-29T01:01:18;1.00;;;0.63;;
28459;SDS011;32528;45.712;9.192;2022-07-29T01:03:19;1.25;;;0.75;;
28459;SDS011;32528;45.712;9.192;2022-07-29T01:05:21;2.85;;;1.00;;
28459;SDS011;32528;45.712;9.192;2022-07-29T01:07:24;1.48;;;0.70;;
28459;SDS011;32528;45.712;9.192;2022-07-29T01:09:26;9.15;;;1.50;;
28459;SDS011;32528;45.712;9.192;2022-07-29T01:11:27;3.95;;;0.80;;
28459;SDS011;32528;45.712;9.192;2022-07-29T01:13:30;1.13;;;0.80;;
28459;SDS011;32528;45.712;9.192;2022-07-29T01:15:33;1.92;;;1.00;;
28459;SDS011;32528;45.712;9.192;2022-07-29T01:17:43;2.97;;;0.98;;
28459;SDS011;32528;45.712;9.192;2022-07-29T01:20:00;2.22;;;1.02;;
28459;SDS011;32528;45.712;9.192;2022-07-29T01:22:12;1.90;;;0.70;;
28459;SDS011;32528;45.712;9.192;2022-07-29T01:24:34;1.50;;;0.60;;
28459;SDS011;32528;45.712;9.192;2022-07-29T01:31:20;2.10;;;1.02;;
28459;SDS011;32528;45.712;9.192;2022-07-29T01:33:28;4.22;;;1.00;;
28459;SDS011;32528;45.712;9.192;2022-07-29T01:35:50;2.38;;;0.73;;
28459;SDS011;32528;45.712;9.192;2022-07-29T01:37:53;3.42;;;1.25;;
28459;SDS011;32528;45.712;9.192;2022-07-29T01:40:24;6.22;;;0.90;;
28459;SDS011;32528;45.712;9.192;2022-07-29T01:42:36;3.63;;;1.05;;
28459;SDS011;32528;45.712;9.192;2022-07-29T01:44:46;4.40;;;1.00;;
28459;SDS011;32528;45.712;9.192;2022-07-29T01:46:55;1.65;;;0.90;;
28459;SDS011;32528;45.712;9.192;2022-07-29T01:49:34;10.68;;;2.33;;
28459;SDS011;32528;45.712;9.192;2022-07-29T01:51:31;2.65;;;0.55;;
28459;SDS011;32528;45.712;9.192;2022-07-29T01:53:38;4.25;;;1.15;;
28459;SDS011;32528;45.712;9.192;2022-07-29T01:57:48;2.17;;;1.20;;
28459;SDS011;32528;45.712;9.192;2022-07-29T01:59:49;2.10;;;1.08;;
28459;SDS011;32528;45.712;9.192;2022-07-29T02:01:52;1.23;;;0.73;;
28459;SDS011;32528;45.712;9.192;2022-07-29T02:03:54;2.42;;;0.65;;
28459;SDS011;32528;45.712;9.192;2022-07-29T02:05:57;6.32;;;1.00;;
28459;SDS011;32528;45.712;9.192;2022-07-29T02:07:59;3.03;;;0.80;;
28459;SDS011;32528;45.712;9.192;2022-07-29T02:10:02;1.75;;;0.90;;
28459;SDS011;32528;45.712;9.192;2022-07-29T02:12:04;2.40;;;0.90;;
28459;SDS011;32528;45.712;9.192;2022-07-29T02:14:07;3.45;;;1.33;;
28459;SDS011;32528;45.712;9.192;2022-07-29T02:16:11;1.08;;;0.50;;
28459;SDS011;32528;45.712;9.192;2022-07-29T02:18:17;7.90;;;1.13;;
28459;SDS011;32528;45.712;9.192;2022-07-29T02:20:18;2.20;;;1.10;;
28459;SDS011;32528;45.712;9.192;2022-07-29T02:22:19;5.38;;;1.13;;
28459;SDS011;32528;45.712;9.192;2022-07-29T02:24:22;3.42;;;0.95;;
28459;SDS011;32528;45.712;9.192;2022-07-29T02:26:24;5.22;;;1.20;;
28459;SDS011;32528;45.712;9.192;2022-07-29T02:28:27;6.53;;;1.00;;
28459;SDS011;32528;45.712;9.192;2022-07-29T02:30:29;3.78;;;0.82;;
28459;SDS011;32528;45.712;9.192;2022-07-29T02:32:31;10.82;;;1.30;;
28459;SDS011;32528;45.712;9.192;2022-07-29T02:34:34;8.07;;;1.30;;
28459;SDS011;32528;45.712;9.192;2022-07-29T02:36:37;3.85;;;0.88;;
28459;SDS011;32528;45.712;9.192;2022-07-29T02:38:39;8.13;;;0.90;;
28459;SDS011;32528;45.712;9.192;2022-07-29T02:40:51;3.10;;;1.08;;
28459;SDS011;32528;45.712;9.192;2022-07-29T02:42:55;2.35;;;0.68;;
28459;SDS011;32528;45.712;9.192;2022-07-29T02:44:56;5.65;;;1.00;;
28459;SDS011;32528;45.712;9.192;2022-07-29T02:49:34;2.17;;;0.82;;
28459;SDS011;32528;45.712;9.192;2022-07-29T02:51:42;5.72;;;1.13;;
28459;SDS011;32528;45.712;9.192;2022-07-29T02:53:47;4.82;;;1.13;;
28459;SDS011;32528;45.712;9.192;2022-07-29T02:55:55;1.40;;;0.82;;
28459;SDS011;32528;45.712;9.192;2022-07-29T02:58:02;11.60;;;1.50;;
28459;SDS011;32528;45.712;9.192;2022-07-29T03:00:13;8.10;;;1.35;;
28459;SDS011;32528;45.712;9.192;2022-07-29T03:02:16;2.78;;;1.00;;
28459;SDS011;32528;45.712;9.192;2022-07-29T03:04:19;1.35;;;0.75;;
28459;SDS011;32528;45.712;9.192;2022-07-29T03:06:23;4.47;;;0.82;;
28459;SDS011;32528;45.712;9.192;2022-07-29T03:08:27;9.82;;;0.88;;
28459;SDS011;32528;45.712;9.192;2022-07-29T03:10:29;8.82;;;1.40;;
28459;SDS011;32528;45.712;9.192;2022-07-29T03:12:31;1.35;;;0.68;;
28459;SDS011;32528;45.712;9.192;2022-07-29T03:14:32;2.28;;;0.95;;
28459;SDS011;32528;45.712;9.192;2022-07-29T03:16:33;2.47;;;0.98;;
28459;SDS011;32528;45.712;9.192;2022-07-29T03:18:36;2.15;;;0.90;;
28459;SDS011;32528;45.712;9.192;2022-07-29T03:20:38;5.28;;;1.20;;
28459;SDS011;32528;45.712;9.192;2022-07-29T03:22:40;7.43;;;1.23;;
28459;SDS011;32528;45.712;9.192;2022-07-29T03:24:43;1.50;;;0.68;;
28459;SDS011;32528;45.712;9.192;2022-07-29T03:26:44;5.43;;;0.90;;
28459;SDS011;32528;45.712;9.192;2022-07-29T03:28:45;2.78;;;0.88;;
28459;SDS011;32528;45.712;9.192;2022-07-29T03:30:46;2.67;;;1.38;;
28459;SDS011;32528;45.712;9.192;2022-07-29T03:32:47;3.45;;;1.23;;
28459;SDS011;32528;45.712;9.192;2022-07-29T03:34:49;1.67;;;0.85;;
28459;SDS011;32528;45.712;9.192;2022-07-29T03:36:50;2.28;;;1.13;;
28459;SDS011;32528;45.712;9.192;2022-07-29T03:38:51;1.38;;;0.80;;
28459;SDS011;32528;45.712;9.192;2022-07-29T03:40:53;3.38;;;1.20;;
28459;SDS011;32528;45.712;9.192;2022-07-29T03:42:59;7.75;;;1.02;;
28459;SDS011;32528;45.712;9.192;2022-07-29T03:45:03;2.05;;;0.98;;
28459;SDS011;32528;45.712;9.192;2022-07-29T03:47:07;2.00;;;0.73;;
28459;SDS011;32528;45.712;9.192;2022-07-29T03:49:10;2.72;;;1.00;;
28459;SDS011;32528;45.712;9.192;2022-07-29T03:51:12;2.92;;;1.33;;
28459;SDS011;32528;45.712;9.192;2022-07-29T03:53:13;5.63;;;1.20;;
28459;SDS011;32528;45.712;9.192;2022-07-29T03:55:14;2.85;;;1.00;;
28459;SDS011;32528;45.712;9.192;2022-07-29T03:57:15;2.67;;;0.93;;
28459;SDS011;32528;45.712;9.192;2022-07-29T03:59:18;1.73;;;0.80;;
28459;SDS011;32528;45.712;9.192;2022-07-29T04:01:20;8.35;;;1.10;;
28459;SDS011;32528;45.712;9.192;2022-07-29T04:03:23;2.15;;;1.00;;
28459;SDS011;32528;45.712;9.192;2022-07-29T04:05:24;2.58;;;1.20;;
28459;SDS011;32528;45.712;9.192;2022-07-29T04:07:25;3.83;;;1.40;;
28459;SDS011;32528;45.712;9.192;2022-07-29T04:09:26;3.95;;;1.00;;
28459;SDS011;32528;45.712;9.192;2022-07-29T04:11:27;1.65;;;1.05;;
28459;SDS011;32528;45.712;9.192;2022-07-29T04:13:28;3.05;;;1.00;;
28459;SDS011;32528;45.712;9.192;2022-07-29T04:15:28;4.00;;;1.02;;
28459;SDS011;32528;45.712;9.192;2022-07-29T04:17:29;2.05;;;1.13;;
28459;SDS011;32528;45.712;9.192;2022-07-29T04:19:30;1.63;;;0.73;;
28459;SDS011;32528;45.712;9.192;2022-07-29T04:21:36;2.42;;;0.80;;
28459;SDS011;32528;45.712;9.192;2022-07-29T04:23:38;1.63;;;0.82;;
28459;SDS011;32528;45.712;9.192;2022-07-29T04:25:39;2.50;;;0.93;;
28459;SDS011;32528;45.712;9.192;2022-07-29T04:27:40;4.15;;;0.80;;
28459;SDS011;32528;45.712;9.192;2022-07-29T04:30:00;0.95;;;0.63;;
28459;SDS011;32528;45.712;9.192;2022-07-29T04:32:01;5.25;;;1.65;;
28459;SDS011;32528;45.712;9.192;2022-07-29T04:34:02;3.65;;;1.50;;
28459;SDS011;32528;45.712;9.192;2022-07-29T04:36:03;4.53;;;1.13;;
28459;SDS011;32528;45.712;9.192;2022-07-29T04:38:04;6.53;;;1.13;;
28459;SDS011;32528;45.712;9.192;2022-07-29T04:40:05;3.05;;;1.25;;
28459;SDS011;32528;45.712;9.192;2022-07-29T04:42:07;3.47;;;0.93;;
28459;SDS011;32528;45.712;9.192;2022-07-29T04:44:08;6.13;;;0.82;;
28459;SDS011;32528;45.712;9.192;2022-07-29T04:46:09;1.42;;;0.82;;
28459;SDS011;32528;45.712;9.192;2022-07-29T04:48:10;4.63;;;1.83;;
28459;SDS011;32528;45.712;9.192;2022-07-29T04:50:10;2.72;;;1.30;;
28459;SDS011;32528;45.712;9.192;2022-07-29T04:52:11;1.70;;;0.70;;
28459;SDS011;32528;45.712;9.192;2022-07-29T04:54:12;4.10;;;1.00;;
28459;SDS011;32528;45.712;9.192;2022-07-29T04:56:13;4.63;;;1.02;;
28459;SDS011;32528;45.712;9.192;2022-07-29T04:58:13;3.45;;;1.02;;
28459;SDS011;32528;45.712;9.192;2022-07-29T05:00:14;1.50;;;0.88;;
28459;SDS011;32528;45.712;9.192;2022-07-29T05:02:15;3.13;;;1.00;;
28459;SDS011;32528;45.712;9.192;2022-07-29T05:04:16;6.97;;;1.10;;
28459;SDS011;32528;45.712;9.192;2022-07-29T05:06:17;3.70;;;1.20;;
28459;SDS011;32528;45.712;9.192;2022-07-29T05:08:18;1.70;;;0.75;;
28459;SDS011;32528;45.712;9.192;2022-07-29T05:10:19;2.25;;;1.13;;
28459;SDS011;32528;45.712;9.192;2022-07-29T05:12:20;1.70;;;0.82;;
28459;SDS011;32528;45.712;9.192;2022-07-29T05:14:20;2.92;;;0.80;;
28459;SDS011;32528;45.712;9.192;2022-07-29T05:16:21;3.85;;;1.48;;
28459;SDS011;32528;45.712;9.192;2022-07-29T05:18:22;5.93;;;1.10;;
28459;SDS011;32528;45.712;9.192;2022-07-29T05:20:23;2.47;;;1.23;;
28459;SDS011;32528;45.712;9.192;2022-07-29T05:22:28;2.30;;;1.10;;
28459;SDS011;32528;45.712;9.192;2022-07-29T05:24:28;3.45;;;1.23;;
28459;SDS011;32528;45.712;9.192;2022-07-29T05:26:29;2.28;;;1.15;;
28459;SDS011;32528;45.712;9.192;2022-07-29T05:28:34;4.43;;;1.45;;
28459;SDS011;32528;45.712;9.192;2022-07-29T05:30:35;3.40;;;1.13;;
28459;SDS011;32528;45.712;9.192;2022-07-29T05:32:35;3.10;;;1.08;;
28459;SDS011;32528;45.712;9.192;2022-07-29T05:34:36;10.05;;;1.88;;
28459;SDS011;32528;45.712;9.192;2022-07-29T05:36:37;5.07;;;1.48;;
28459;SDS011;32528;45.712;9.192;2022-07-29T05:38:38;4.78;;;1.60;;
28459;SDS011;32528;45.712;9.192;2022-07-29T05:40:38;3.92;;;1.33;;
28459;SDS011;32528;45.712;9.192;2022-07-29T05:42:39;10.15;;;1.23;;
28459;SDS011;32528;45.712;9.192;2022-07-29T05:44:40;4.97;;;1.40;;
28459;SDS011;32528;45.712;9.192;2022-07-29T05:46:41;2.35;;;1.08;;
28459;SDS011;32528;45.712;9.192;2022-07-29T05:48:42;4.80;;;1.60;;
28459;SDS011;32528;45.712;9.192;2022-07-29T05:50:42;6.25;;;1.20;;
28459;SDS011;32528;45.712;9.192;2022-07-29T05:52:48;3.00;;;1.27;;
28459;SDS011;32528;45.712;9.192;2022-07-29T05:54:49;5.13;;;1.70;;
28459;SDS011;32528;45.712;9.192;2022-07-29T05:56:49;3.83;;;1.55;;
28459;SDS011;32528;45.712;9.192;2022-07-29T05:58:50;4.32;;;1.83;;
28459;SDS011;32528;45.712;9.192;2022-07-29T06:00:51;7.07;;;1.73;;
28459;SDS011;32528;45.712;9.192;2022-07-29T06:02:53;5.07;;;2.03;;
28459;SDS011;32528;45.712;9.192;2022-07-29T06:04:53;5.72;;;1.90;;
28459;SDS011;32528;45.712;9.192;2022-07-29T06:06:54;7.80;;;2.88;;
28459;SDS011;32528;45.712;9.192;2022-07-29T06:08:55;5.13;;;1.75;;
28459;SDS011;32528;45.712;9.192;2022-07-29T06:10:56;8.15;;;2.80;;
28459;SDS011;32528;45.712;9.192;2022-07-29T06:12:57;4.18;;;1.67;;
28459;SDS011;32528;45.712;9.192;2022-07-29T06:14:58;7.35;;;2.80;;
28459;SDS011;32528;45.712;9.192;2022-07-29T06:16:58;9.18;;;2.47;;
28459;SDS011;32528;45.712;9.192;2022-07-29T06:18:59;6.93;;;2.10;;
28459;SDS011;32528;45.712;9.192;2022-07-29T06:21:00;10.95;;;2.28;;
28459;SDS011;32528;45.712;9.192;2022-07-29T06:23:01;4.15;;;1.98;;
28459;SDS011;32528;45.712;9.192;2022-07-29T06:25:04;7.88;;;2.30;;
28459;SDS011;32528;45.712;9.192;2022-07-29T06:27:05;4.43;;;2.10;;
28459;SDS011;32528;45.712;9.192;2022-07-29T06:29:06;4.03;;;2.08;;
28459;SDS011;32528;45.712;9.192;2022-07-29T06:31:09;5.13;;;2.03;;
28459;SDS011;32528;45.712;9.192;2022-07-29T06:33:15;4.70;;;1.60;;
28459;SDS011;32528;45.712;9.192;2022-07-29T06:35:16;9.43;;;2.28;;
28459;SDS011;32528;45.712;9.192;2022-07-29T06:37:17;5.55;;;1.92;;
28459;SDS011;32528;45.712;9.192;2022-07-29T06:39:18;6.22;;;1.90;;
28459;SDS011;32528;45.712;9.192;2022-07-29T06:41:19;10.20;;;2.47;;
28459;SDS011;32528;45.712;9.192;2022-07-29T06:43:20;5.05;;;1.98;;
28459;SDS011;32528;45.712;9.192;2022-07-29T06:45:20;5.57;;;1.83;;
28459;SDS011;32528;45.712;9.192;2022-07-29T06:47:21;5.85;;;1.95;;
28459;SDS011;32528;45.712;9.192;2022-07-29T06:49:22;3.13;;;1.63;;
28459;SDS011;32528;45.712;9.192;2022-07-29T06:51:24;3.75;;;1.80;;
28459;SDS011;32528;45.712;9.192;2022-07-29T06:53:25;6.85;;;2.13;;
28459;SDS011;32528;45.712;9.192;2022-07-29T06:55:26;4.22;;;1.60;;
28459;SDS011;32528;45.712;9.192;2022-07-29T06:57:27;4.18;;;1.77;;
28459;SDS011;32528;45.712;9.192;2022-07-29T06:59:28;5.57;;;1.65;;
28459;SDS011;32528;45.712;9.192;2022-07-29T07:01:28;2.35;;;1.30;;
28459;SDS011;32528;45.712;9.192;2022-07-29T07:03:29;3.97;;;1.98;;
28459;SDS011;32528;45.712;9.192;2022-07-29T07:05:30;5.13;;;1.63;;
28459;SDS011;32528;45.712;9.192;2022-07-29T07:07:31;3.03;;;1.38;;
28459;SDS011;32528;45.712;9.192;2022-07-29T07:09:32;3.70;;;1.33;;
28459;SDS011;32528;45.712;9.192;2022-07-29T07:11:32;6.35;;;1.38;;
28459;SDS011;32528;45.712;9.192;2022-07-29T07:13:33;1.90;;;1.10;;
28459;SDS011;32528;45.712;9.192;2022-07-29T07:15:35;2.15;;;1.10;;
28459;SDS011;32528;45.712;9.192;2022-07-29T07:17:36;2.17;;;1.10;;
28459;SDS011;32528;45.712;9.192;2022-07-29T07:19:37;3.90;;;1.27;;
28459;SDS011;32528;45.712;9.192;2022-07-29T07:21:38;3.08;;;1.58;;
28459;SDS011;32528;45.712;9.192;2022-07-29T07:23:39;4.95;;;1.45;;
28459;SDS011;32528;45.712;9.192;2022-07-29T07:25:39;3.95;;;1.45;;
28459;SDS011;32528;45.712;9.192;2022-07-29T07:27:40;3.28;;;1.13;;
28459;SDS011;32528;45.712;9.192;2022-07-29T07:29:41;2.55;;;1.17;;
28459;SDS011;32528;45.712;9.192;2022-07-29T07:31:42;2.90;;;1.25;;
28459;SDS011;32528;45.712;9.192;2022-07-29T07:33:43;3.80;;;1.20;;
28459;SDS011;32528;45.712;9.192;2022-07-29T07:35:44;6.15;;;1.48;;
28459;SDS011;32528;45.712;9.192;2022-07-29T07:37:46;3.63;;;1.88;;
28459;SDS011;32528;45.712;9.192;2022-07-29T07:39:47;3.70;;;2.00;;
28459;SDS011;32528;45.712;9.192;2022-07-29T07:41:47;4.80;;;1.40;;
28459;SDS011;32528;45.712;9.192;2022-07-29T07:43:48;6.90;;;1.70;;
28459;SDS011;32528;45.712;9.192;2022-07-29T07:45:49;11.30;;;1.95;;
28459;SDS011;32528;45.712;9.192;2022-07-29T07:47:50;2.83;;;1.15;;
28459;SDS011;32528;45.712;9.192;2022-07-29T07:49:51;3.50;;;1.50;;
28459;SDS011;32528;45.712;9.192;2022-07-29T07:51:52;4.07;;;1.35;;
28459;SDS011;32528;45.712;9.192;2022-07-29T07:53:53;3.00;;;1.65;;
28459;SDS011;32528;45.712;9.192;2022-07-29T07:55:54;4.38;;;1.75;;
28459;SDS011;32528;45.712;9.192;2022-07-29T07:57:54;5.20;;;1.42;;
28459;SDS011;32528;45.712;9.192;2022-07-29T07:59:55;7.15;;;1.33;;
28459;SDS011;32528;45.712;9.192;2022-07-29T08:01:56;2.80;;;1.15;;
28459;SDS011;32528;45.712;9.192;2022-07-29T08:03:57;4.45;;;1.40;;
28459;SDS011;32528;45.712;9.192;2022-07-29T08:05:58;4.22;;;1.48;;
28459;SDS011;32528;45.712;9.192;2022-07-29T08:07:58;2.72;;;1.38;;
28459;SDS011;32528;45.712;9.192;2022-07-29T08:09:59;8.18;;;1.75;;
28459;SDS011;32528;45.712;9.192;2022-07-29T08:12:00;3.13;;;1.52;;
28459;SDS011;32528;45.712;9.192;2022-07-29T08:14:03;5.80;;;1.30;;
28459;SDS011;32528;45.712;9.192;2022-07-29T08:16:04;16.85;;;10.20;;
28459;SDS011;32528;45.712;9.192;2022-07-29T08:18:13;10.77;;;2.55;;
28459;SDS011;32528;45.712;9.192;2022-07-29T08:20:13;3.08;;;1.38;;
28459;SDS011;32528;45.712;9.192;2022-07-29T08:22:14;5.55;;;1.40;;
28459;SDS011;32528;45.712;9.192;2022-07-29T08:24:15;3.72;;;1.30;;
28459;SDS011;32528;45.712;9.192;2022-07-29T08:26:34;3.05;;;1.42;;
28459;SDS011;32528;45.712;9.192;2022-07-29T08:28:36;2.75;;;1.30;;
28459;SDS011;32528;45.712;9.192;2022-07-29T08:30:38;2.95;;;1.42;;
28459;SDS011;32528;45.712;9.192;2022-07-29T08:32:38;6.07;;;1.52;;
28459;SDS011;32528;45.712;9.192;2022-07-29T08:34:40;3.60;;;1.27;;
28459;SDS011;32528;45.712;9.192;2022-07-29T08:36:41;4.35;;;1.58;;
28459;SDS011;32528;45.712;9.192;2022-07-29T08:38:41;4.50;;;1.67;;
28459;SDS011;32528;45.712;9.192;2022-07-29T08:40:42;3.72;;;1.52;;
28459;SDS011;32528;45.712;9.192;2022-07-29T08:42:44;5.15;;;2.65;;
28459;SDS011;32528;45.712;9.192;2022-07-29T08:44:45;4.25;;;1.80;;
28459;SDS011;32528;45.712;9.192;2022-07-29T08:46:45;6.75;;;1.75;;
28459;SDS011;32528;45.712;9.192;2022-07-29T08:48:47;4.70;;;1.58;;
28459;SDS011;32528;45.712;9.192;2022-07-29T08:50:49;4.03;;;1.17;;
28459;SDS011;32528;45.712;9.192;2022-07-29T08:52:55;4.18;;;1.45;;
28459;SDS011;32528;45.712;9.192;2022-07-29T08:54:57;4.78;;;2.20;;
28459;SDS011;32528;45.712;9.192;2022-07-29T08:56:58;5.85;;;1.92;;
28459;SDS011;32528;45.712;9.192;2022-07-29T08:59:02;3.40;;;1.40;;
28459;SDS011;32528;45.712;9.192;2022-07-29T09:01:05;3.60;;;1.40;;
28459;SDS011;32528;45.712;9.192;2022-07-29T09:03:08;3.03;;;1.42;;
28459;SDS011;32528;45.712;9.192;2022-07-29T09:05:10;5.18;;;1.15;;
28459;SDS011;32528;45.712;9.192;2022-07-29T09:07:14;8.88;;;2.92;;
28459;SDS011;32528;45.712;9.192;2022-07-29T09:09:16;3.08;;;1.50;;
28459;SDS011;32528;45.712;9.192;2022-07-29T09:11:17;5.13;;;1.38;;
28459;SDS011;32528;45.712;9.192;2022-07-29T09:13:18;4.28;;;2.00;;
28459;SDS011;32528;45.712;9.192;2022-07-29T09:15:19;6.93;;;1.50;;
28459;SDS011;32528;45.712;9.192;2022-07-29T09:17:38;6.13;;;1.98;;
28459;SDS011;32528;45.712;9.192;2022-07-29T09:19:40;9.25;;;3.15;;
28459;SDS011;32528;45.712;9.192;2022-07-29T09:21:42;4.97;;;2.03;;
28459;SDS011;32528;45.712;9.192;2022-07-29T09:24:01;4.15;;;1.75;;
28459;SDS011;32528;45.712;9.192;2022-07-29T09:26:05;3.15;;;1.45;;
28459;SDS011;32528;45.712;9.192;2022-07-29T09:30:09;6.28;;;2.45;;
28459;SDS011;32528;45.712;9.192;2022-07-29T09:32:13;7.20;;;2.78;;
28459;SDS011;32528;45.712;9.192;2022-07-29T09:34:16;5.90;;;2.38;;
28459;SDS011;32528;45.712;9.192;2022-07-29T09:36:21;5.25;;;2.42;;
28459;SDS011;32528;45.712;9.192;2022-07-29T09:38:23;2.97;;;1.60;;
28459;SDS011;32528;45.712;9.192;2022-07-29T09:40:27;5.20;;;1.73;;
28459;SDS011;32528;45.712;9.192;2022-07-29T09:42:28;4.60;;;1.77;;
28459;SDS011;32528;45.712;9.192;2022-07-29T09:44:45;5.47;;;2.10;;
28459;SDS011;32528;45.712;9.192;2022-07-29T09:49:05;4.28;;;1.63;;
28459;SDS011;32528;45.712;9.192;2022-07-29T09:51:18;3.53;;;1.33;;
28459;SDS011;32528;45.712;9.192;2022-07-29T09:53:32;6.03;;;1.90;;
28459;SDS011;32528;45.712;9.192;2022-07-29T09:55:40;10.63;;;2.10;;
28459;SDS011;32528;45.712;9.192;2022-07-29T09:57:47;5.00;;;2.10;;
28459;SDS011;32528;45.712;9.192;2022-07-29T10:00:04;13.00;;;2.00;;
28459;SDS011;32528;45.712;9.192;2022-07-29T10:02:15;6.18;;;1.80;;
28459;SDS011;32528;45.712;9.192;2022-07-29T10:04:16;7.60;;;1.92;;
28459;SDS011;32528;45.712;9.192;2022-07-29T10:06:18;3.97;;;1.75;;
28459;SDS011;32528;45.712;9.192;2022-07-29T10:08:24;5.13;;;2.33;;
28459;SDS011;32528;45.712;9.192;2022-07-29T10:12:28;5.50;;;2.15;;
28459;SDS011;32528;45.712;9.192;2022-07-29T10:14:30;5.28;;;2.10;;
28459;SDS011;32528;45.712;9.192;2022-07-29T10:16:32;5.50;;;1.80;;
28459;SDS011;32528;45.712;9.192;2022-07-29T10:18:33;5.30;;;2.35;;
28459;SDS011;32528;45.712;9.192;2022-07-29T10:20:34;5.85;;;2.30;;
28459;SDS011;32528;45.712;9.192;2022-07-29T10:22:36;10.27;;;2.00;;
28459;SDS011;32528;45.712;9.192;2022-07-29T10:24:38;5.10;;;1.98;;
28459;SDS011;32528;45.712;9.192;2022-07-29T10:26:39;7.65;;;2.50;;
28459;SDS011;32528;45.712;9.192;2022-07-29T10:28:41;6.75;;;2.40;;
28459;SDS011;32528;45.712;9.192;2022-07-29T10:30:41;3.95;;;2.17;;
28459;SDS011;32528;45.712;9.192;2022-07-29T10:39:52;4.30;;;2.30;;
28459;SDS011;32528;45.712;9.192;2022-07-29T10:44:19;5.28;;;2.63;;
28459;SDS011;32528;45.712;9.192;2022-07-29T10:46:21;10.35;;;2.40;;
28459;SDS011;32528;45.712;9.192;2022-07-29T10:48:22;7.00;;;2.58;;
28459;SDS011;32528;45.712;9.192;2022-07-29T10:50:23;5.85;;;2.58;;
28459;SDS011;32528;45.712;9.192;2022-07-29T10:52:24;6.47;;;2.25;;
28459;SDS011;32528;45.712;9.192;2022-07-29T10:54:46;7.32;;;3.13;;
28459;SDS011;32528;45.712;9.192;2022-07-29T10:56:50;14.18;;;3.42;;
28459;SDS011;32528;45.712;9.192;2022-07-29T11:01:30;5.70;;;2.67;;
28459;SDS011;32528;45.712;9.192;2022-07-29T11:03:42;4.88;;;2.30;;
28459;SDS011;32528;45.712;9.192;2022-07-29T11:05:56;9.35;;;2.55;;
28459;SDS011;32528;45.712;9.192;2022-07-29T11:17:04;6.95;;;2.67;;
28459;SDS011;32528;45.712;9.192;2022-07-29T11:21:34;6.70;;;2.50;;
28459;SDS011;32528;45.712;9.192;2022-07-29T11:23:38;8.82;;;2.47;;
28459;SDS011;32528;45.712;9.192;2022-07-29T11:25:39;12.80;;;2.67;;
28459;SDS011;32528;45.712;9.192;2022-07-29T11:27:40;4.18;;;2.28;;
28459;SDS011;32528;45.712;9.192;2022-07-29T11:29:48;5.00;;;2.33;;
28459;SDS011;32528;45.712;9.192;2022-07-29T11:31:54;6.05;;;2.80;;
28459;SDS011;32528;45.712;9.192;2022-07-29T11:34:16;4.75;;;2.50;;
28459;SDS011;32528;45.712;9.192;2022-07-29T11:36:20;7.22;;;2.63;;
28459;SDS011;32528;45.712;9.192;2022-07-29T11:38:24;6.68;;;2.88;;
28459;SDS011;32528;45.712;9.192;2022-07-29T11:40:27;10.05;;;2.85;;
28459;SDS011;32528;45.712;9.192;2022-07-29T11:47:07;6.97;;;3.50;;
28459;SDS011;32528;45.712;9.192;2022-07-29T11:49:09;9.77;;;3.42;;
28459;SDS011;32528;45.712;9.192;2022-07-29T11:51:11;7.18;;;3.47;;
28459;SDS011;32528;45.712;9.192;2022-07-29T11:53:12;4.55;;;2.63;;
28459;SDS011;32528;45.712;9.192;2022-07-29T11:55:15;8.68;;;3.88;;
28459;SDS011;32528;45.712;9.192;2022-07-29T11:57:18;8.32;;;3.97;;
28459;SDS011;32528;45.712;9.192;2022-07-29T11:59:20;12.75;;;3.22;;
28459;SDS011;32528;45.712;9.192;2022-07-29T12:01:21;7.05;;;3.30;;
28459;SDS011;32528;45.712;9.192;2022-07-29T12:03:27;10.52;;;3.25;;
28459;SDS011;32528;45.712;9.192;2022-07-29T12:05:33;7.55;;;3.75;;
28459;SDS011;32528;45.712;9.192;2022-07-29T12:07:34;6.22;;;3.17;;
28459;SDS011;32528;45.712;9.192;2022-07-29T12:09:35;7.15;;;3.25;;
28459;SDS011;32528;45.712;9.192;2022-07-29T12:11:36;14.25;;;3.53;;
28459;SDS011;32528;45.712;9.192;2022-07-29T12:13:39;8.23;;;3.10;;
28459;SDS011;32528;45.712;9.192;2022-07-29T12:15:40;6.63;;;3.53;;
28459;SDS011;32528;45.712;9.192;2022-07-29T12:17:43;4.82;;;2.90;;
28459;SDS011;32528;45.712;9.192;2022-07-29T12:19:44;8.10;;;3.78;;
28459;SDS011;32528;45.712;9.192;2022-07-29T12:21:46;10.05;;;4.22;;
28459;SDS011;32528;45.712;9.192;2022-07-29T12:23:54;11.35;;;3.95;;
28459;SDS011;32528;45.712;9.192;2022-07-29T12:25:57;10.93;;;3.50;;
28459;SDS011;32528;45.712;9.192;2022-07-29T12:28:02;7.20;;;2.72;;
28459;SDS011;32528;45.712;9.192;2022-07-29T12:30:08;12.32;;;3.00;;
28459;SDS011;32528;45.712;9.192;2022-07-29T12:32:10;8.13;;;3.75;;
28459;SDS011;32528;45.712;9.192;2022-07-29T12:34:11;9.88;;;3.97;;
28459;SDS011;32528;45.712;9.192;2022-07-29T12:36:13;7.78;;;4.03;;
28459;SDS011;32528;45.712;9.192;2022-07-29T12:38:14;12.55;;;5.35;;
28459;SDS011;32528;45.712;9.192;2022-07-29T12:40:16;8.75;;;4.10;;
28459;SDS011;32528;45.712;9.192;2022-07-29T12:42:17;10.68;;;3.80;;
28459;SDS011;32528;45.712;9.192;2022-07-29T12:44:18;8.63;;;3.25;;
28459;SDS011;32528;45.712;9.192;2022-07-29T12:46:19;15.30;;;4.07;;
28459;SDS011;32528;45.712;9.192;2022-07-29T12:48:41;12.38;;;3.55;;
28459;SDS011;32528;45.712;9.192;2022-07-29T12:50:51;8.25;;;4.40;;
28459;SDS011;32528;45.712;9.192;2022-07-29T12:52:53;12.05;;;5.00;;
28459;SDS011;32528;45.712;9.192;2022-07-29T12:54:54;10.70;;;4.72;;
28459;SDS011;32528;45.712;9.192;2022-07-29T12:56:58;11.90;;;3.83;;
28459;SDS011;32528;45.712;9.192;2022-07-29T12:59:00;7.53;;;3.15;;
28459;SDS011;32528;45.712;9.192;2022-07-29T13:01:16;15.68;;;4.32;;
28459;SDS011;32528;45.712;9.192;2022-07-29T13:03:20;9.90;;;4.72;;